Hacienda Primavera, Puerto Rico
Current Conditions -  °F | °C
As of 1:56 PM on Friday 24 Oct 2014 (Local Time) from TJSJ Reporting Station
Scattered Clouds Scattered Clouds  
Wind Chill: 92°   Ceiling: Unl
Heat Index: 101°   Visibility: 10mi
Dew Point: 73°   Wind: 13mph
Humidity: 54%   Direction: 160°SSE
Pressure: 29.88"   Gusts: 18mph
Location:  18.1743°N, 66.1581°W
Report Text: TJSJ 241756Z 16011G16KT 10SM FEW040 SCT090 33/23 A2988 RMK AO2 SLP117 T03330228 10339 20283 56024
Loading
Personal Weather Stations






























Interactive Weather Map
Tropical Storm Tracking
New forecast layout! Learn more

10-Day Weather Forecast

Advertisements
Track Severe Weather on mobile